Time;durP1;ratioP1;P1;durP2;ratioP2;P2;SDS_P1;SDS_P2;PMS_P1;PMS_P2;Temp;Humidity;BMP_temperature;BMP_pressure;BME280_temperature;BME280_humidity;BME280_pressure;Samples;Min_cycle;Max_cycle;Signal;HPM_P1;HPM_P2
2023/01/31 00:00:55;;;;;;;11.38;1.70;;;3.40;99.90;;;;;;5005983;28;20036;-71
2023/01/31 00:03:20;;;;;;;22.02;2.28;;;3.30;99.90;;;;;;5007395;28;20026;-72
2023/01/31 00:05:46;;;;;;;5.63;1.17;;;3.30;99.90;;;;;;5006894;28;20098;-71
2023/01/31 00:08:13;;;;;;;10.27;1.92;;;3.30;99.90;;;;;;5006148;28;20064;-70
2023/01/31 00:10:38;;;;;;;7.38;1.30;;;3.30;99.90;;;;;;5007811;28;20038;-71
2023/01/31 00:13:04;;;;;;;14.05;2.40;;;3.30;99.90;;;;;;5005446;28;20040;-73
2023/01/31 00:15:29;;;;;;;16.10;3.30;;;3.30;99.90;;;;;;5004842;28;20057;-71
2023/01/31 00:17:55;;;;;;;17.08;1.70;;;3.20;99.90;;;;;;5007114;28;20499;-71
2023/01/31 00:20:21;;;;;;;13.32;2.42;;;3.20;99.90;;;;;;5005601;28;20400;-71
2023/01/31 00:22:46;;;;;;;14.38;2.20;;;3.20;99.90;;;;;;5005532;28;20048;-73
2023/01/31 00:25:12;;;;;;;13.80;2.65;;;3.20;99.90;;;;;;5005757;28;20060;-70
2023/01/31 00:27:37;;;;;;;14.00;3.63;;;3.10;99.90;;;;;;5004861;28;20046;-72
2023/01/31 00:30:04;;;;;;;12.75;2.20;;;3.10;99.90;;;;;;5006004;28;20044;-72
2023/01/31 00:32:29;;;;;;;8.23;2.42;;;3.10;99.90;;;;;;5002764;28;20042;-71
2023/01/31 00:34:55;;;;;;;9.07;2.85;;;3.10;99.90;;;;;;5006750;28;20037;-72
2023/01/31 00:37:21;;;;;;;15.77;2.13;;;3.10;99.90;;;;;;5007231;28;20042;-72
2023/01/31 00:39:46;;;;;;;13.85;1.73;;;3.10;99.90;;;;;;5007028;28;20046;-71
2023/01/31 00:42:12;;;;;;;7.80;1.52;;;3.10;99.90;;;;;;5005216;28;20069;-69
2023/01/31 00:44:38;;;;;;;18.50;2.15;;;3.10;99.90;;;;;;5007604;28;20099;-72
2023/01/31 00:47:03;;;;;;;10.60;1.10;;;3.10;99.90;;;;;;5006946;28;20137;-72
2023/01/31 00:49:29;;;;;;;11.57;1.48;;;3.10;99.90;;;;;;5006962;28;20100;-71
2023/01/31 00:51:55;;;;;;;16.45;1.48;;;3.10;99.90;;;;;;5007042;28;20026;-72
2023/01/31 00:54:20;;;;;;;17.70;2.53;;;3.10;99.90;;;;;;5007258;28;20038;-71
2023/01/31 00:56:46;;;;;;;16.70;2.10;;;3.10;99.90;;;;;;5004904;28;20049;-71
2023/01/31 00:59:12;;;;;;;27.60;3.00;;;3.10;99.90;;;;;;5006238;28;20576;-70
2023/01/31 01:01:38;;;;;;;12.50;2.67;;;3.10;99.90;;;;;;5006842;28;20053;-72
2023/01/31 01:04:04;;;;;;;17.00;3.55;;;3.10;99.90;;;;;;5006741;28;20048;-72
2023/01/31 01:06:30;;;;;;;12.15;2.35;;;3.10;99.90;;;;;;5005074;28;20089;-71
2023/01/31 01:08:58;;;;;;;9.93;2.17;;;3.10;99.90;;;;;;5010316;28;20054;-72
2023/01/31 01:11:27;;;;;;;15.32;2.72;;;3.10;99.90;;;;;;5010445;28;20479;-72
2023/01/31 01:13:54;;;;;;;10.25;1.40;;;3.10;99.90;;;;;;5008896;28;20054;-72
2023/01/31 01:16:23;;;;;;;10.63;2.03;;;3.10;99.90;;;;;;5010163;28;20034;-71
2023/01/31 01:18:49;;;;;;;12.60;1.70;;;3.10;99.90;;;;;;5010696;28;20133;-73
2023/01/31 01:21:17;;;;;;;10.57;1.40;;;3.10;99.90;;;;;;5010483;28;20546;-71
2023/01/31 01:23:46;;;;;;;12.25;1.50;;;3.10;99.90;;;;;;5010638;28;20037;-71
2023/01/31 01:26:16;;;;;;;11.85;2.08;;;3.00;99.90;;;;;;5012547;28;20056;-71
2023/01/31 01:28:42;;;;;;;14.00;1.55;;;3.00;99.90;;;;;;5025910;28;20469;-72
2023/01/31 01:31:09;;;;;;;13.30;3.00;;;3.00;99.90;;;;;;5008895;28;20054;-71
2023/01/31 01:33:36;;;;;;;15.98;2.15;;;3.00;99.90;;;;;;5007931;28;20041;-72
2023/01/31 01:36:04;;;;;;;21.23;2.47;;;3.00;99.90;;;;;;5009662;28;20030;-72
2023/01/31 01:38:29;;;;;;;18.73;2.50;;;3.00;99.90;;;;;;5010454;28;20092;-70
2023/01/31 01:40:55;;;;;;;12.93;2.38;;;3.00;99.90;;;;;;5010043;28;20038;-72
2023/01/31 01:43:37;;;;;;;13.98;2.13;;;3.00;99.90;;;;;;5010197;28;20030;-72
2023/01/31 01:46:03;;;;;;;9.90;2.17;;;3.10;99.90;;;;;;5008714;28;20034;-71
2023/01/31 01:48:29;;;;;;;12.05;2.40;;;3.20;99.90;;;;;;5009471;28;20050;-71
2023/01/31 01:50:54;;;;;;;10.05;1.45;;;3.20;99.90;;;;;;5009933;28;20426;-72
2023/01/31 01:53:25;;;;;;;9.90;1.50;;;3.30;99.90;;;;;;5009571;28;20034;-72
2023/01/31 01:56:14;;;;;;;10.05;1.42;;;3.30;99.90;;;;;;5008161;28;20055;-72
2023/01/31 01:58:50;;;;;;;9.38;2.00;;;3.40;99.90;;;;;;5010389;28;20058;-71
2023/01/31 02:01:16;;;;;;;11.95;2.22;;;3.40;99.90;;;;;;5005544;28;20033;-72
2023/01/31 02:03:43;;;;;;;9.23;1.60;;;3.50;99.90;;;;;;5009738;28;20036;-72
2023/01/31 02:06:09;;;;;;;12.27;1.52;;;3.60;99.90;;;;;;5008729;28;20069;-72
2023/01/31 02:08:37;;;;;;;17.58;2.58;;;3.60;99.90;;;;;;5009702;28;20072;-72
2023/01/31 02:11:12;;;;;;;16.52;2.05;;;3.60;99.90;;;;;;5007914;28;20030;-72
2023/01/31 02:13:40;;;;;;;11.57;1.30;;;3.70;99.90;;;;;;5009647;28;20046;-72
2023/01/31 02:16:06;;;;;;;20.50;3.42;;;3.70;99.90;;;;;;5009298;28;20042;-72
2023/01/31 02:18:32;;;;;;;5.93;1.30;;;3.80;99.90;;;;;;5007812;28;20037;-73
2023/01/31 02:21:25;;;;;;;21.33;2.67;;;3.80;99.90;;;;;;5009315;28;20030;-73
2023/01/31 02:24:15;;;;;;;20.45;2.17;;;3.80;99.90;;;;;;4989108;28;20082;-73
2023/01/31 02:27:00;;;;;;;11.20;2.25;;;3.90;99.90;;;;;;4987789;28;20050;-72
2023/01/31 02:29:42;;;;;;;16.23;3.08;;;3.90;99.90;;;;;;4987121;28;20101;-72
2023/01/31 02:32:25;;;;;;;16.17;3.15;;;4.00;99.90;;;;;;4988008;28;20030;-72
2023/01/31 02:35:18;;;;;;;12.45;2.72;;;4.00;99.90;;;;;;4996975;28;20117;-72
2023/01/31 02:38:05;;;;;;;11.85;3.10;;;4.00;99.90;;;;;;4976187;28;20114;-72
2023/01/31 02:40:37;;;;;;;7.95;1.67;;;4.00;99.90;;;;;;5000136;28;20065;-72
2023/01/31 02:44:58;;;;;;;12.60;1.80;;;4.00;99.90;;;;;;4987555;28;20509;-72
2023/01/31 02:47:00;;;;;;;15.02;2.90;;;4.00;99.90;;;;;;4991871;28;20042;-73
2023/01/31 02:49:44;;;;;;;16.55;2.30;;;4.10;99.90;;;;;;4986859;28;20122;-72
2023/01/31 02:52:36;;;;;;;16.80;3.17;;;4.10;99.90;;;;;;4986010;28;20502;-72
2023/01/31 02:58:00;;;;;;;16.20;2.05;;;4.10;99.90;;;;;;4982846;28;20161;-72
2023/01/31 03:00:28;;;;;;;14.30;1.85;;;4.10;99.90;;;;;;5003316;28;20137;-71
2023/01/31 03:02:55;;;;;;;13.23;1.90;;;4.10;99.90;;;;;;4986693;28;20046;-72
2023/01/31 03:05:21;;;;;;;16.02;2.03;;;4.10;99.90;;;;;;4989750;28;20034;-71
2023/01/31 03:07:50;;;;;;;18.33;3.53;;;4.10;99.90;;;;;;4987315;28;20057;-70
2023/01/31 03:10:34;;;;;;;14.50;1.75;;;4.10;99.90;;;;;;4989017;28;20049;-71
2023/01/31 03:13:34;;;;;;;20.65;2.70;;;4.20;99.90;;;;;;4988827;28;20038;-71
2023/01/31 03:19:24;;;;;;;17.05;2.15;;;4.20;99.90;;;;;;4983470;28;20041;-72
2023/01/31 03:22:06;;;;;;;18.33;2.75;;;4.20;99.90;;;;;;4984666;28;20042;-70
2023/01/31 03:24:33;;;;;;;17.95;2.08;;;4.20;99.90;;;;;;4986944;28;20042;-69
2023/01/31 03:27:01;;;;;;;17.25;2.85;;;4.20;99.90;;;;;;4988067;28;20133;-71
2023/01/31 03:29:28;;;;;;;18.00;3.42;;;4.30;99.90;;;;;;4987728;28;20402;-71
2023/01/31 03:32:01;;;;;;;10.88;2.88;;;4.20;99.90;;;;;;4988347;28;20550;-71
2023/01/31 03:34:27;;;;;;;17.25;2.95;;;4.30;99.90;;;;;;4988107;28;20443;-71
2023/01/31 03:37:18;;;;;;;13.45;2.40;;;4.30;99.90;;;;;;4986730;28;20086;-71
2023/01/31 03:40:20;;;;;;;16.95;2.58;;;4.30;99.90;;;;;;4985333;28;20057;-71
2023/01/31 03:43:30;;;;;;;13.27;3.45;;;4.30;99.90;;;;;;4999377;28;20494;-72
2023/01/31 03:46:02;;;;;;;25.23;5.72;;;4.30;99.90;;;;;;5002723;28;20041;-71
2023/01/31 03:48:34;;;;;;;10.02;2.42;;;4.30;99.90;;;;;;5002514;28;20041;-71
2023/01/31 03:51:05;;;;;;;13.73;4.35;;;4.40;99.90;;;;;;5007596;28;20122;-71
2023/01/31 03:53:39;;;;;;;18.15;4.45;;;4.30;99.90;;;;;;5007116;28;20038;-71
2023/01/31 03:56:28;;;;;;;11.75;2.72;;;4.30;99.90;;;;;;5007433;28;20073;-71
2023/01/31 03:58:59;;;;;;;13.23;2.65;;;4.30;99.90;;;;;;5001657;28;20095;-72
2023/01/31 04:01:27;;;;;;;;;;;4.30;99.90;;;;;;5011766;28;20038;-71
2023/01/31 04:04:04;;;;;;;10.65;3.53;;;4.20;99.90;;;;;;5005596;28;19917;-71
2023/01/31 04:06:29;;;;;;;8.85;2.22;;;4.30;99.90;;;;;;5007453;28;20123;-71
2023/01/31 04:08:55;;;;;;;20.55;2.95;;;4.20;99.90;;;;;;5007192;28;20033;-71
2023/01/31 04:11:24;;;;;;;13.75;3.10;;;4.20;99.90;;;;;;5007233;28;20065;-71
2023/01/31 04:13:50;;;;;;;16.98;2.90;;;4.20;99.90;;;;;;5006723;28;20034;-71
2023/01/31 04:16:16;;;;;;;17.58;2.92;;;4.20;99.90;;;;;;5004763;28;20026;-71
2023/01/31 04:18:41;;;;;;;15.63;3.00;;;4.20;99.90;;;;;;5008171;28;20026;-71
2023/01/31 04:21:08;;;;;;;17.83;3.20;;;4.20;99.90;;;;;;5007491;28;20030;-71
2023/01/31 04:23:34;;;;;;;24.25;4.75;;;4.20;99.90;;;;;;5005614;28;20026;-71
2023/01/31 04:26:00;;;;;;;14.23;2.92;;;4.30;99.90;;;;;;5007892;28;20026;-71
2023/01/31 04:28:26;;;;;;;25.77;4.80;;;4.40;99.90;;;;;;5003079;28;20026;-72
2023/01/31 04:30:53;;;;;;;14.10;3.22;;;4.40;99.90;;;;;;5007141;28;20041;-71
2023/01/31 04:33:19;;;;;;;21.88;3.83;;;4.50;99.90;;;;;;5005545;28;20038;-72
2023/01/31 04:35:44;;;;;;;21.17;5.00;;;4.50;99.90;;;;;;5005884;28;20036;-71
2023/01/31 04:38:10;;;;;;;23.15;3.38;;;4.50;99.90;;;;;;5004848;28;20044;-71
2023/01/31 04:40:35;;;;;;;15.85;3.60;;;4.60;99.90;;;;;;5007861;28;20474;-71
2023/01/31 04:43:01;;;;;;;19.92;3.97;;;4.70;99.90;;;;;;5011121;28;20389;-71
2023/01/31 04:45:27;;;;;;;19.48;4.07;;;4.70;99.90;;;;;;5009656;28;20041;-71
2023/01/31 04:47:52;;;;;;;13.00;2.97;;;4.70;99.90;;;;;;5011177;28;20485;-72
2023/01/31 04:50:18;;;;;;;17.25;4.57;;;4.70;99.90;;;;;;5011199;28;20072;-70
2023/01/31 04:52:46;;;;;;;25.52;3.40;;;4.80;99.90;;;;;;5010988;28;20038;-71
2023/01/31 04:55:11;;;;;;;21.05;5.32;;;4.80;99.90;;;;;;5007104;28;20036;-72
2023/01/31 04:57:37;;;;;;;25.38;5.03;;;4.80;99.90;;;;;;5011118;28;20482;-71
2023/01/31 05:00:03;;;;;;;21.58;4.05;;;4.80;99.90;;;;;;5011063;28;20360;-71
2023/01/31 05:02:30;;;;;;;15.00;3.97;;;4.80;99.90;;;;;;5012756;28;20473;-71
2023/01/31 05:04:56;;;;;;;12.40;4.20;;;4.90;99.90;;;;;;5010119;28;20037;-71
2023/01/31 05:07:21;;;;;;;13.55;2.92;;;4.90;99.90;;;;;;5009880;28;20034;-71
2023/01/31 05:09:47;;;;;;;25.92;4.63;;;4.90;99.90;;;;;;5008964;28;20038;-71
2023/01/31 05:12:12;;;;;;;18.02;4.55;;;4.90;99.90;;;;;;5009562;28;20137;-73
2023/01/31 05:14:38;;;;;;;16.67;3.78;;;4.90;99.90;;;;;;5005512;28;20099;-72
2023/01/31 05:17:04;;;;;;;22.55;4.47;;;4.90;99.90;;;;;;5005158;28;20057;-72
2023/01/31 05:19:30;;;;;;;26.35;3.83;;;5.00;99.90;;;;;;5010761;28;20034;-71
2023/01/31 05:21:58;;;;;;;27.50;4.75;;;5.00;99.90;;;;;;5010553;28;20052;-71
2023/01/31 05:24:27;;;;;;;20.65;4.45;;;5.00;99.90;;;;;;5008983;28;20034;-71
2023/01/31 05:26:57;;;;;;;26.73;4.13;;;5.00;99.90;;;;;;5011100;28;20054;-72
2023/01/31 05:29:24;;;;;;;27.13;4.38;;;5.00;99.90;;;;;;5009979;28;20046;-71
2023/01/31 05:31:51;;;;;;;20.80;3.67;;;5.10;99.90;;;;;;5005383;28;20354;-70
2023/01/31 05:34:16;;;;;;;23.52;3.67;;;5.10;99.90;;;;;;5004392;28;20034;-71
2023/01/31 05:36:42;;;;;;;24.17;4.18;;;5.10;99.90;;;;;;5005847;28;20026;-71
2023/01/31 05:39:08;;;;;;;18.92;4.18;;;5.10;99.90;;;;;;5006321;28;20033;-71
2023/01/31 05:41:33;;;;;;;18.40;2.90;;;5.00;99.90;;;;;;5004320;28;20019;-70
2023/01/31 05:43:59;;;;;;;22.35;3.92;;;5.10;99.90;;;;;;5002173;28;20030;-72
2023/01/31 05:46:24;;;;;;;15.82;2.83;;;5.20;99.90;;;;;;5005444;28;20360;-71
2023/01/31 05:48:51;;;;;;;25.55;4.88;;;5.20;99.90;;;;;;5008119;28;20049;-70
2023/01/31 05:51:16;;;;;;;21.80;3.42;;;5.10;99.90;;;;;;5003005;28;20031;-71
2023/01/31 05:53:42;;;;;;;20.60;4.32;;;5.20;99.90;;;;;;5006481;28;20391;-71
2023/01/31 05:56:07;;;;;;;14.73;3.65;;;5.20;99.90;;;;;;5007328;28;20128;-71
2023/01/31 05:58:33;;;;;;;29.08;3.88;;;5.20;99.90;;;;;;5008415;28;20806;-71
2023/01/31 06:00:58;;;;;;;23.13;3.70;;;5.30;99.90;;;;;;5012588;28;20040;-71
2023/01/31 06:03:24;;;;;;;20.88;3.40;;;5.30;99.90;;;;;;5009686;28;20037;-70
2023/01/31 06:05:49;;;;;;;25.50;3.95;;;5.20;99.90;;;;;;5007752;28;20034;-70
2023/01/31 06:08:16;;;;;;;28.88;5.00;;;5.30;99.90;;;;;;5006619;28;20037;-71
2023/01/31 06:10:42;;;;;;;23.70;3.65;;;5.20;99.90;;;;;;5009953;28;20057;-71
2023/01/31 06:13:07;;;;;;;14.43;3.30;;;5.30;99.90;;;;;;5008950;28;20117;-71
2023/01/31 06:15:33;;;;;;;23.08;4.00;;;5.30;99.90;;;;;;5008887;28;20038;-71
2023/01/31 06:17:58;;;;;;;20.00;4.45;;;5.30;99.90;;;;;;5001219;28;20027;-71
2023/01/31 06:20:25;;;;;;;18.98;3.58;;;5.30;99.90;;;;;;5005641;28;20042;-72
2023/01/31 06:22:51;;;;;;;34.13;5.88;;;5.30;99.90;;;;;;5003882;28;20044;-71
2023/01/31 06:25:16;;;;;;;29.92;3.95;;;5.30;99.90;;;;;;5007180;28;20144;-72
2023/01/31 06:27:42;;;;;;;16.77;3.92;;;5.30;99.90;;;;;;5003071;28;20034;-71
2023/01/31 06:30:09;;;;;;;14.38;2.83;;;5.40;99.90;;;;;;5008574;28;20394;-72
2023/01/31 06:32:35;;;;;;;15.95;2.38;;;5.40;99.90;;;;;;5004718;28;20372;-71
2023/01/31 06:35:02;;;;;;;20.92;4.30;;;5.40;99.90;;;;;;5004815;28;20076;-71
2023/01/31 06:37:27;;;;;;;17.00;3.95;;;5.30;99.90;;;;;;5017998;28;20395;-71
2023/01/31 06:39:53;;;;;;;20.60;2.35;;;5.30;99.90;;;;;;5006861;28;20040;-72
2023/01/31 06:42:18;;;;;;;25.85;3.60;;;5.40;99.90;;;;;;5011340;28;20042;-72
2023/01/31 06:44:45;;;;;;;18.05;2.70;;;5.40;99.90;;;;;;5003931;28;20558;-71
2023/01/31 06:47:11;;;;;;;22.15;3.40;;;5.30;99.90;;;;;;5005194;28;20038;-72
2023/01/31 06:49:38;;;;;;;27.17;5.80;;;5.30;99.90;;;;;;5011476;28;20052;-71
2023/01/31 06:52:04;;;;;;;14.27;3.78;;;5.30;99.90;;;;;;5005693;28;20120;-71
2023/01/31 06:54:29;;;;;;;22.42;4.30;;;5.30;99.90;;;;;;5003905;28;20576;-72
2023/01/31 06:56:55;;;;;;;13.10;2.78;;;5.30;99.90;;;;;;5007225;28;20120;-71
2023/01/31 06:59:21;;;;;;;17.05;2.50;;;5.30;99.90;;;;;;5011401;28;20034;-71
2023/01/31 07:01:46;;;;;;;16.10;3.70;;;5.30;99.90;;;;;;5004158;28;20366;-73
2023/01/31 07:04:12;;;;;;;22.35;4.72;;;5.30;99.90;;;;;;5003232;28;20034;-71
2023/01/31 07:06:38;;;;;;;15.70;3.15;;;5.30;99.90;;;;;;4996592;28;20069;-71
2023/01/31 07:09:03;;;;;;;22.50;3.50;;;5.30;99.90;;;;;;5002364;28;20030;-71
2023/01/31 07:11:29;;;;;;;17.50;2.80;;;5.30;99.90;;;;;;5005106;28;20503;-71
2023/01/31 07:13:54;;;;;;;9.73;2.78;;;5.30;99.90;;;;;;5004556;28;20545;-72
2023/01/31 07:16:22;;;;;;;23.08;4.00;;;5.20;99.90;;;;;;5002725;28;20380;-72
2023/01/31 07:18:51;;;;;;;29.60;4.72;;;5.20;99.90;;;;;;5003581;28;20034;-71
2023/01/31 07:21:17;;;;;;;12.05;3.50;;;5.30;99.90;;;;;;5004273;28;20029;-71
2023/01/31 07:23:44;;;;;;;14.05;3.10;;;5.30;99.90;;;;;;5006918;28;20031;-72
2023/01/31 07:26:10;;;;;;;15.25;2.65;;;5.30;99.90;;;;;;5004288;28;20199;-72
2023/01/31 07:28:35;;;;;;;22.73;3.72;;;5.30;99.90;;;;;;5004411;28;20125;-72
2023/01/31 07:31:05;;;;;;;15.45;4.10;;;5.30;99.90;;;;;;5000709;28;20494;-72
2023/01/31 07:33:35;;;;;;;22.50;4.30;;;5.30;99.90;;;;;;5002283;28;20038;-72
2023/01/31 07:36:03;;;;;;;8.10;2.13;;;5.40;99.90;;;;;;5003743;28;20034;-72
2023/01/31 07:38:29;;;;;;;14.25;1.92;;;5.40;99.90;;;;;;4993377;28;20034;-71
2023/01/31 07:40:58;;;;;;;9.32;2.30;;;5.40;99.90;;;;;;5000940;28;20046;-71
2023/01/31 07:43:24;;;;;;;18.05;2.35;;;5.40;99.90;;;;;;5006578;28;20030;-71
2023/01/31 07:45:49;;;;;;;16.65;2.88;;;5.50;99.90;;;;;;5001630;28;20034;-72
2023/01/31 07:48:15;;;;;;;20.33;3.65;;;5.50;99.90;;;;;;4997180;28;20050;-72
2023/01/31 07:50:40;;;;;;;27.98;3.13;;;5.60;99.90;;;;;;5003920;28;20122;-71
2023/01/31 07:53:06;;;;;;;19.42;2.33;;;5.60;99.90;;;;;;5017857;28;20099;-71
2023/01/31 07:55:32;;;;;;;16.60;2.25;;;5.60;99.90;;;;;;5000811;28;21614;-72
2023/01/31 07:57:57;;;;;;;26.45;4.72;;;5.70;99.90;;;;;;4999075;28;20038;-72
2023/01/31 08:03:33;;;;;;;16.42;2.10;;;5.80;99.90;;;;;;5003080;28;20080;-73
2023/01/31 08:06:07;;;;;;;13.75;2.10;;;5.80;99.90;;;;;;5007848;28;20060;-72
2023/01/31 08:08:33;;;;;;;8.63;2.53;;;5.90;99.90;;;;;;4999548;28;20073;-71
2023/01/31 08:10:59;;;;;;;9.88;1.80;;;5.90;99.90;;;;;;5002349;28;20049;-72
2023/01/31 08:13:25;;;;;;;16.95;2.08;;;6.00;99.90;;;;;;5013873;28;20113;-71
2023/01/31 08:15:52;;;;;;;15.65;2.78;;;5.90;99.90;;;;;;4999104;28;20037;-71
2023/01/31 08:18:18;;;;;;;19.92;2.70;;;6.00;99.90;;;;;;5012271;28;20125;-71
2023/01/31 08:20:44;;;;;;;12.25;2.25;;;6.00;99.90;;;;;;4997341;28;20129;-72
2023/01/31 08:23:09;;;;;;;13.40;2.85;;;5.90;99.90;;;;;;4999629;28;20065;-72
2023/01/31 08:25:35;;;;;;;14.65;2.03;;;6.00;99.90;;;;;;5000339;28;20030;-73
2023/01/31 08:28:01;;;;;;;12.45;2.55;;;6.00;99.90;;;;;;5010737;28;20038;-71
2023/01/31 08:30:27;;;;;;;16.52;3.03;;;6.00;99.90;;;;;;5004115;28;20072;-72
2023/01/31 08:32:53;;;;;;;13.85;2.63;;;6.00;99.90;;;;;;4998362;28;20135;-71
2023/01/31 08:35:19;;;;;;;19.40;2.88;;;5.90;99.90;;;;;;5003248;28;20180;-72
2023/01/31 08:37:44;;;;;;;19.45;2.92;;;6.10;99.90;;;;;;4998924;28;20041;-70
2023/01/31 08:40:11;;;;;;;20.90;2.90;;;6.10;99.90;;;;;;4999760;28;20038;-72
2023/01/31 08:42:36;;;;;;;19.95;3.60;;;6.00;99.90;;;;;;4990540;28;20034;-71
2023/01/31 08:45:02;;;;;;;13.95;2.00;;;6.00;99.90;;;;;;4999112;28;20087;-71
2023/01/31 08:47:28;;;;;;;13.68;2.40;;;6.10;99.90;;;;;;4998211;28;20112;-71
2023/01/31 08:49:53;;;;;;;19.77;2.70;;;6.10;99.90;;;;;;4999943;28;20053;-71
2023/01/31 08:52:19;;;;;;;18.80;3.50;;;6.00;99.90;;;;;;5002356;28;20048;-70
2023/01/31 08:54:44;;;;;;;16.05;3.35;;;6.10;99.90;;;;;;5000804;28;20072;-71
2023/01/31 08:57:10;;;;;;;13.73;2.95;;;6.10;99.90;;;;;;4996961;28;20037;-72
2023/01/31 08:59:36;;;;;;;10.30;2.10;;;6.20;99.90;;;;;;5000321;28;20041;-71
2023/01/31 09:02:01;;;;;;;11.68;2.15;;;6.30;99.90;;;;;;5014035;28;20033;-71
2023/01/31 09:04:27;;;;;;;13.90;2.70;;;6.40;99.90;;;;;;4997316;28;20041;-71
2023/01/31 09:06:54;;;;;;;12.90;2.25;;;6.40;99.90;;;;;;4999688;28;20045;-71
2023/01/31 09:09:19;;;;;;;20.52;4.03;;;6.40;99.90;;;;;;5001371;28;20037;-71
2023/01/31 09:11:45;;;;;;;12.63;2.88;;;6.40;99.90;;;;;;5001420;28;20033;-71
2023/01/31 09:14:10;;;;;;;15.13;3.00;;;6.40;99.90;;;;;;4998475;28;20121;-72
2023/01/31 09:16:37;;;;;;;21.10;2.08;;;6.50;99.90;;;;;;5014246;28;20580;-72
2023/01/31 09:19:03;;;;;;;12.40;1.88;;;6.50;99.90;;;;;;4995861;28;20116;-72
2023/01/31 09:21:28;;;;;;;14.70;2.78;;;6.50;99.90;;;;;;4999410;28;20121;-72
2023/01/31 09:23:57;;;;;;;19.27;4.45;;;6.50;99.90;;;;;;4998063;28;20125;-71
2023/01/31 09:26:23;;;;;;;20.23;3.25;;;6.60;99.90;;;;;;5002706;28;20089;-71
2023/01/31 09:28:49;;;;;;;13.73;2.33;;;6.60;99.90;;;;;;5001247;28;20053;-72
2023/01/31 09:31:17;;;;;;;18.83;3.05;;;6.70;99.90;;;;;;5003386;28;20044;-71
2023/01/31 09:33:43;;;;;;;12.50;2.03;;;6.70;99.90;;;;;;5004244;28;20448;-71
2023/01/31 09:36:14;;;;;;;11.45;2.22;;;6.80;99.90;;;;;;5010616;28;20038;-71
2023/01/31 09:38:40;;;;;;;10.52;1.98;;;6.90;99.90;;;;;;5004618;28;20049;-71
2023/01/31 09:41:16;;;;;;;14.40;2.08;;;6.90;99.90;;;;;;5004144;28;20085;-72
2023/01/31 09:43:47;;;;;;;15.30;2.75;;;6.90;99.90;;;;;;5008482;28;20121;-73
2023/01/31 09:46:18;;;;;;;7.32;2.30;;;6.90;99.90;;;;;;5009040;28;20069;-71
2023/01/31 09:48:48;;;;;;;14.25;2.20;;;6.90;99.90;;;;;;5003916;28;20042;-72
2023/01/31 09:51:16;;;;;;;22.90;2.92;;;6.90;99.90;;;;;;5002743;28;20045;-72
2023/01/31 09:53:42;;;;;;;9.70;1.88;;;6.90;99.90;;;;;;5003924;28;20485;-71
2023/01/31 09:56:08;;;;;;;9.40;2.30;;;6.90;99.90;;;;;;5001916;28;20076;-71
2023/01/31 09:58:58;;;;;;;17.23;3.42;;;6.90;99.90;;;;;;5003311;28;20410;-71
2023/01/31 10:01:30;;;;;;;21.23;4.10;;;6.90;99.90;;;;;;5002713;28;20037;-73
2023/01/31 10:04:11;;;;;;;12.27;3.45;;;6.90;99.90;;;;;;5002107;28;20061;-71
2023/01/31 10:06:57;;;;;;;19.58;2.92;;;7.00;99.90;;;;;;5000693;28;20104;-72
2023/01/31 10:09:50;;;;;;;14.80;3.03;;;7.00;99.90;;;;;;5002467;28;20041;-71
2023/01/31 10:12:23;;;;;;;8.50;2.08;;;7.10;99.90;;;;;;5021154;28;20033;-72
2023/01/31 10:14:54;;;;;;;11.57;1.92;;;7.20;99.90;;;;;;5005868;28;20125;-72
2023/01/31 10:17:57;;;;;;;21.40;3.72;;;7.30;99.90;;;;;;4998364;28;20037;-71
2023/01/31 10:20:31;;;;;;;14.55;3.60;;;7.30;99.90;;;;;;4979638;28;20034;-72
2023/01/31 10:23:03;;;;;;;10.55;1.60;;;7.40;99.90;;;;;;5009215;28;20023;-72
2023/01/31 10:25:49;;;;;;;19.17;2.20;;;7.50;99.90;;;;;;5010972;28;20151;-71
2023/01/31 10:28:23;;;;;;;12.82;2.50;;;7.60;99.90;;;;;;5007306;28;20124;-72
2023/01/31 10:31:04;;;;;;;11.68;2.30;;;7.70;99.90;;;;;;5021755;28;20045;-71
2023/01/31 10:33:50;;;;;;;15.18;2.70;;;7.70;99.90;;;;;;5007573;28;20418;-71
2023/01/31 10:36:33;;;;;;;6.50;1.45;;;7.60;99.90;;;;;;5003337;28;20511;-71
2023/01/31 10:39:02;;;;;;;14.50;2.00;;;7.70;99.90;;;;;;5002220;28;20034;-72
2023/01/31 10:42:10;;;;;;;21.92;2.72;;;7.60;99.90;;;;;;4999538;28;20046;-71
2023/01/31 10:44:48;;;;;;;15.95;2.17;;;7.70;99.90;;;;;;4985505;28;20034;-72
2023/01/31 10:47:16;;;;;;;9.95;1.73;;;7.70;99.90;;;;;;4999447;28;20040;-72
2023/01/31 10:49:49;;;;;;;11.65;2.28;;;7.80;99.90;;;;;;5007392;28;20057;-73
2023/01/31 10:52:15;;;;;;;8.80;1.90;;;7.80;99.90;;;;;;5008265;28;20038;-72
2023/01/31 10:55:04;;;;;;;12.13;3.35;;;7.80;99.90;;;;;;5008091;28;20088;-72
2023/01/31 10:57:30;;;;;;;15.38;2.55;;;7.80;99.90;;;;;;5008191;28;20756;-71
2023/01/31 10:59:56;;;;;;;9.60;2.08;;;7.80;99.90;;;;;;5023917;28;20107;-70
2023/01/31 11:02:24;;;;;;;13.18;2.15;;;7.70;99.90;;;;;;5010141;28;20632;-71
2023/01/31 11:04:53;;;;;;;10.65;1.90;;;7.70;99.90;;;;;;5006850;28;20486;-71
2023/01/31 11:07:20;;;;;;;11.13;1.52;;;7.70;99.90;;;;;;5005110;28;20096;-72
2023/01/31 11:09:52;;;;;;;10.95;1.42;;;7.70;99.90;;;;;;5004604;28;20446;-72
2023/01/31 11:12:38;;;;;;;13.02;2.53;;;7.70;99.90;;;;;;4997625;28;20069;-71
2023/01/31 11:15:18;;;;;;;16.60;2.17;;;7.70;99.90;;;;;;5019000;28;20030;-71
2023/01/31 11:17:46;;;;;;;20.80;2.63;;;7.70;99.90;;;;;;5008209;28;20037;-71
2023/01/31 11:20:24;;;;;;;11.52;2.33;;;7.70;99.90;;;;;;5002936;28;20033;-72
2023/01/31 11:22:51;;;;;;;13.82;1.90;;;7.70;99.90;;;;;;5000869;28;20046;-71
2023/01/31 11:25:22;;;;;;;9.90;1.20;;;7.70;99.90;;;;;;5005358;28;20073;-72
2023/01/31 11:27:51;;;;;;;7.35;1.23;;;7.70;99.90;;;;;;4998814;28;20038;-72
2023/01/31 11:30:24;;;;;;;8.90;1.42;;;7.70;99.90;;;;;;5001672;28;20038;-70
2023/01/31 11:32:49;;;;;;;12.88;1.17;;;7.70;99.90;;;;;;5005743;28;20034;-73
2023/01/31 11:35:15;;;;;;;11.32;1.50;;;7.70;99.90;;;;;;5006557;28;20034;-73
2023/01/31 11:37:53;;;;;;;13.68;1.25;;;7.70;99.90;;;;;;5006723;28;20052;-72
2023/01/31 11:40:34;;;;;;;18.35;3.13;;;7.80;99.90;;;;;;5000939;28;20446;-72
2023/01/31 11:43:03;;;;;;;16.33;2.22;;;7.80;99.90;;;;;;4995011;28;20033;-74
2023/01/31 11:45:35;;;;;;;7.45;1.42;;;7.80;99.90;;;;;;5003012;28;20529;-72
2023/01/31 11:48:17;;;;;;;10.00;3.00;;;7.90;99.90;;;;;;5002537;28;20042;-73
2023/01/31 11:50:49;;;;;;;10.63;1.67;;;7.90;99.90;;;;;;4998708;28;20466;-73
2023/01/31 11:53:28;;;;;;;13.13;1.95;;;7.90;99.90;;;;;;5003582;28;20038;-71
2023/01/31 11:55:59;;;;;;;10.75;1.42;;;7.90;99.90;;;;;;5004596;28;20085;-71
2023/01/31 11:58:32;;;;;;;15.23;1.35;;;8.00;99.90;;;;;;5002332;28;20064;-72
2023/01/31 12:01:04;;;;;;;10.85;1.63;;;8.00;99.90;;;;;;4999871;28;20030;-73
2023/01/31 12:03:30;;;;;;;8.13;1.15;;;8.00;99.90;;;;;;5004255;28;20046;-71
2023/01/31 12:06:02;;;;;;;13.90;1.88;;;8.00;99.90;;;;;;5006640;28;20038;-71
2023/01/31 12:08:52;;;;;;;12.65;1.67;;;8.00;99.90;;;;;;5004802;28;20090;-72
2023/01/31 12:11:18;;;;;;;8.10;1.25;;;8.10;99.90;;;;;;4996458;28;20050;-73
2023/01/31 12:14:00;;;;;;;19.77;2.10;;;8.10;99.90;;;;;;5006551;28;20037;-71
2023/01/31 12:16:28;;;;;;;7.90;1.20;;;8.10;99.90;;;;;;5003713;28;20115;-72
2023/01/31 12:19:12;;;;;;;4.68;1.08;;;8.10;99.90;;;;;;4999911;28;20026;-72
2023/01/31 12:21:48;;;;;;;13.48;1.50;;;8.20;99.90;;;;;;5002919;28;20168;-71
2023/01/31 12:24:20;;;;;;;11.75;1.90;;;8.30;99.90;;;;;;5000910;28;20080;-71
2023/01/31 12:26:58;;;;;;;8.65;2.42;;;8.30;99.90;;;;;;5004577;28;20071;-71
2023/01/31 12:29:32;;;;;;;8.32;1.42;;;8.50;99.90;;;;;;4998650;28;20095;-72
2023/01/31 12:32:07;;;;;;;10.02;1.85;;;8.50;99.90;;;;;;5003958;28;20037;-72
2023/01/31 12:34:57;;;;;;;9.15;2.05;;;8.60;99.90;;;;;;5006367;28;20132;-71
2023/01/31 12:38:06;;;;;;;11.23;2.90;;;8.70;99.90;;;;;;5019326;28;20061;-72
2023/01/31 12:41:07;;;;;;;11.13;2.40;;;8.80;99.90;;;;;;4991252;28;20044;-71
2023/01/31 12:44:09;;;;;;;10.95;1.80;;;8.80;99.90;;;;;;4995477;28;20036;-70
2023/01/31 12:47:02;;;;;;;10.40;1.60;;;9.00;99.90;;;;;;5004799;28;20049;-72
2023/01/31 12:49:46;;;;;;;13.07;1.95;;;9.00;99.90;;;;;;4996551;28;20128;-72
2023/01/31 12:52:11;;;;;;;9.25;1.55;;;9.10;99.90;;;;;;5004674;28;20384;-72
2023/01/31 12:55:14;;;;;;;6.65;1.33;;;9.10;99.90;;;;;;5002921;28;20103;-71
2023/01/31 12:57:43;;;;;;;8.35;1.35;;;9.10;99.90;;;;;;4997308;28;20038;-72
2023/01/31 13:00:31;;;;;;;13.25;1.63;;;9.20;99.90;;;;;;5004122;28;20144;-72
2023/01/31 13:03:25;;;;;;;9.82;1.73;;;9.20;99.90;;;;;;5004429;28;20042;-72
2023/01/31 13:05:58;;;;;;;11.25;1.48;;;9.30;99.90;;;;;;4963568;28;20051;-71
2023/01/31 13:08:31;;;;;;;6.13;1.42;;;9.30;99.90;;;;;;4977844;28;20610;-72
2023/01/31 13:11:18;;;;;;;13.23;2.28;;;9.30;99.90;;;;;;4977022;28;20570;-72
2023/01/31 13:13:55;;;;;;;13.02;1.55;;;9.40;99.90;;;;;;4974778;28;20768;-72
2023/01/31 13:16:23;;;;;;;8.07;1.65;;;9.40;99.90;;;;;;4975053;28;20117;-72